Time;durP1;ratioP1;P1;durP2;ratioP2;P2;SDS_P1;SDS_P2;PMS_P1;PMS_P2;Temp;Humidity;BMP_temperature;BMP_pressure;BME280_temperature;BME280_humidity;BME280_pressure;Samples;Min_cycle;Max_cycle;Signal;HPM_P1;HPM_P2
2021/04/22 00:00:57;;;;;;;8.83;5.93;;;;;;;7.12;75.58;98521.22;5053220;28;20036;-63
2021/04/22 00:03:22;;;;;;;9.23;6.43;;;;;;;7.12;75.86;98525.47;5055580;28;20036;-63
2021/04/22 00:05:48;;;;;;;10.20;6.73;;;;;;;7.05;76.18;98524.66;5056302;28;20091;-64
2021/04/22 00:08:13;;;;;;;10.50;6.60;;;;;;;7.02;76.41;98527.22;5054272;28;20053;-63
2021/04/22 00:10:42;;;;;;;9.83;6.60;;;;;;;7.05;76.27;98519.56;5055093;28;20037;-63
2021/04/22 00:13:07;;;;;;;11.13;6.73;;;;;;;6.94;76.48;98526.44;5055388;28;20060;-63
2021/04/22 00:15:33;;;;;;;10.00;6.50;;;;;;;6.92;76.68;98522.22;5055065;28;20071;-63
2021/04/22 00:17:59;;;;;;;10.40;7.13;;;;;;;6.99;77.01;98524.72;5055847;28;20064;-63
2021/04/22 00:20:25;;;;;;;9.47;6.40;;;;;;;7.09;76.04;98525.47;5054593;28;20064;-63
2021/04/22 00:22:51;;;;;;;8.83;5.97;;;;;;;7.08;75.36;98519.56;5055438;28;20032;-64
2021/04/22 00:25:17;;;;;;;9.57;6.90;;;;;;;7.09;74.94;98526.31;5054992;28;20043;-64
2021/04/22 00:27:42;;;;;;;10.73;6.70;;;;;;;7.16;75.09;98525.44;5055689;28;20036;-63
2021/04/22 00:30:12;;;;;;;9.30;6.13;;;;;;;7.23;74.52;98521.97;5056009;28;20048;-64
2021/04/22 00:32:39;;;;;;;9.27;6.67;;;;;;;7.52;72.18;98521.75;5056523;28;20316;-65
2021/04/22 00:35:06;;;;;;;12.30;6.37;;;;;;;7.72;71.44;98524.13;5056076;28;20095;-65
2021/04/22 00:37:32;;;;;;;9.23;5.87;;;;;;;7.72;70.81;98526.69;5054619;28;20124;-66
2021/04/22 00:39:57;;;;;;;11.77;6.87;;;;;;;7.66;71.16;98527.56;5055876;28;20178;-65
2021/04/22 00:42:23;;;;;;;8.73;5.70;;;;;;;7.58;71.13;98523.41;5055892;28;20078;-64
2021/04/22 00:44:50;;;;;;;8.63;5.37;;;;;;;7.55;71.37;98531.09;5056722;28;20041;-66
2021/04/22 00:47:15;;;;;;;9.30;5.70;;;;;;;7.39;71.67;98532.06;5053255;28;20031;-66
2021/04/22 00:49:42;;;;;;;8.13;5.77;;;;;;;7.35;72.10;98539.75;5055422;28;20037;-65
2021/04/22 00:52:09;;;;;;;10.10;6.20;;;;;;;7.36;72.13;98532.94;5054413;28;20119;-65
2021/04/22 00:54:36;;;;;;;9.60;6.27;;;;;;;7.34;72.48;98537.22;5054139;28;20040;-65
2021/04/22 00:57:02;;;;;;;15.03;7.00;;;;;;;7.32;72.45;98539.78;5055619;28;20033;-65
2021/04/22 00:59:27;;;;;;;11.83;5.93;;;;;;;7.32;72.20;98542.31;5054009;28;20017;-65
2021/04/22 01:01:52;;;;;;;9.13;5.80;;;;;;;7.34;72.78;98535.47;5053854;28;20397;-65
2021/04/22 01:04:18;;;;;;;11.93;6.63;;;;;;;7.34;72.42;98537.22;5054469;28;20044;-65
2021/04/22 01:06:45;;;;;;;11.37;7.23;;;;;;;7.39;72.82;98543.09;5052756;28;20410;-66
2021/04/22 01:09:14;;;;;;;10.47;6.07;;;;;;;7.46;72.73;98547.31;5053074;28;20333;-65
2021/04/22 01:11:41;;;;;;;10.50;6.27;;;;;;;7.53;72.55;98540.44;5053075;28;20081;-63
2021/04/22 01:14:07;;;;;;;15.33;8.07;;;;;;;7.52;73.18;98552.34;5051381;28;20119;-64
2021/04/22 01:16:33;;;;;;;9.13;6.10;;;;;;;7.53;72.37;98535.34;5052764;28;20040;-65
2021/04/22 01:18:58;;;;;;;11.07;6.67;;;;;;;7.90;70.30;98546.91;5052818;28;20041;-64
2021/04/22 01:21:25;;;;;;;9.37;6.47;;;;;;;8.24;69.20;98550.81;5055089;28;20041;-64
2021/04/22 01:23:52;;;;;;;12.60;6.97;;;;;;;8.42;68.28;98549.78;5054844;28;20059;-64
2021/04/22 01:26:23;;;;;;;10.07;6.10;;;;;;;8.58;67.78;98550.44;5054698;28;20064;-65
2021/04/22 01:28:49;;;;;;;9.20;6.43;;;;;;;8.61;67.14;98558.09;5054832;28;20033;-64
2021/04/22 01:31:15;;;;;;;9.57;5.83;;;;;;;8.52;67.79;98560.75;5052078;28;20044;-64
2021/04/22 01:33:41;;;;;;;11.20;6.73;;;;;;;8.42;68.31;98564.25;5055048;28;20033;-64
2021/04/22 01:36:07;;;;;;;8.23;6.10;;;;;;;8.42;68.29;98566.81;5054592;28;20043;-64
2021/04/22 01:38:34;;;;;;;12.67;6.67;;;;;;;8.36;68.09;98564.34;5055080;28;20063;-64
2021/04/22 01:41:00;;;;;;;13.80;7.57;;;;;;;8.32;68.12;98572.91;5053321;28;20025;-65
2021/04/22 01:43:28;;;;;;;13.07;6.70;;;;;;;8.25;68.77;98572.94;5038247;28;20647;-64
2021/04/22 01:45:53;;;;;;;12.30;7.30;;;;;;;8.18;68.82;98571.31;5054384;28;20111;-64
2021/04/22 01:48:19;;;;;;;10.90;7.10;;;;;;;8.16;69.29;98559.41;5050566;28;20135;-64
2021/04/22 01:50:45;;;;;;;9.90;6.50;;;;;;;8.14;69.33;98569.66;5053937;28;20033;-64
2021/04/22 01:53:11;;;;;;;12.17;6.20;;;;;;;8.20;68.89;98573.84;5053721;28;20051;-64
2021/04/22 01:55:40;;;;;;;10.33;6.70;;;;;;;8.35;68.83;98570.31;5052384;28;20041;-64
2021/04/22 01:58:08;;;;;;;13.30;8.23;;;;;;;8.31;68.53;98577.16;5053511;28;20028;-64
2021/04/22 02:00:44;;;;;;;13.40;7.63;;;;;;;8.29;68.84;98573.78;5052973;28;20055;-64
2021/04/22 02:03:10;;;;;;;16.30;8.25;;;;;;;8.27;68.77;98568.63;5050789;28;20070;-64
2021/04/22 02:05:37;;;;;;;14.63;8.03;;;;;;;8.25;69.00;98559.31;5052314;28;20036;-64
2021/04/22 02:08:03;;;;;;;10.43;7.23;;;;;;;8.27;69.15;98563.53;5031212;28;20500;-64
2021/04/22 02:10:28;;;;;;;12.07;6.67;;;;;;;8.30;68.80;98556.75;5032106;28;20029;-64
2021/04/22 02:12:54;;;;;;;12.40;7.17;;;;;;;8.34;68.54;98560.94;5032703;28;20331;-67
2021/04/22 02:15:25;;;;;;;12.80;7.83;;;;;;;8.29;68.53;98558.44;5031780;28;20082;-67
2021/04/22 02:17:52;;;;;;;13.10;7.07;;;;;;;8.20;69.40;98564.47;5034130;28;20041;-67
2021/04/22 02:20:18;;;;;;;11.07;7.67;;;;;;;8.18;69.61;98557.69;5032884;28;20017;-67
2021/04/22 02:22:44;;;;;;;11.13;7.03;;;;;;;8.19;69.05;98560.22;5032883;28;20060;-67
2021/04/22 02:25:12;;;;;;;13.00;7.57;;;;;;;8.26;68.76;98563.56;5033119;28;20684;-67
2021/04/22 02:27:38;;;;;;;12.03;7.87;;;;;;;8.31;68.65;98559.28;5033759;28;20017;-67
2021/04/22 02:30:10;;;;;;;9.63;6.87;;;;;;;8.30;68.78;98551.63;5032699;28;20041;-66
2021/04/22 02:32:36;;;;;;;11.60;6.97;;;;;;;8.22;68.69;98556.81;5006356;28;20087;-67
2021/04/22 02:35:04;;;;;;;9.70;7.37;;;;;;;8.19;68.62;98550.00;5033585;28;20120;-67
2021/04/22 02:37:29;;;;;;;16.70;7.77;;;;;;;8.07;69.08;98544.19;5031856;28;20402;-66
2021/04/22 02:39:55;;;;;;;13.00;7.87;;;;;;;8.06;69.16;98548.44;5033396;28;20025;-67
2021/04/22 02:42:20;;;;;;;11.93;8.53;;;;;;;8.18;69.33;98539.81;5033157;28;20033;-66
2021/04/22 02:44:46;;;;;;;12.70;7.93;;;;;;;8.26;68.77;98538.03;5032276;28;20037;-65
2021/04/22 02:47:11;;;;;;;10.73;7.73;;;;;;;8.36;68.09;98537.06;5031848;28;20025;-67
2021/04/22 02:49:37;;;;;;;11.50;7.67;;;;;;;8.54;67.30;98536.00;5034185;28;20041;-65
2021/04/22 02:52:03;;;;;;;9.63;6.97;;;;;;;8.64;66.91;98527.38;5031819;28;20032;-67
2021/04/22 02:54:29;;;;;;;11.90;7.47;;;;;;;8.54;67.38;98534.31;5033069;28;20040;-67
2021/04/22 02:56:54;;;;;;;7.57;6.30;;;;;;;8.50;67.46;98532.66;5032674;28;20033;-66
2021/04/22 02:59:20;;;;;;;11.50;7.30;;;;;;;8.53;66.16;98531.78;5032528;28;20045;-67
2021/04/22 03:01:45;;;;;;;8.57;6.53;;;;;;;8.57;66.00;98530.88;5032255;28;20036;-67
2021/04/22 03:04:10;;;;;;;11.23;6.90;;;;;;;8.62;65.65;98529.09;5031563;28;20030;-67
2021/04/22 03:06:36;;;;;;;11.03;6.70;;;;;;;8.59;66.00;98531.69;5034035;28;20051;-67
2021/04/22 03:09:03;;;;;;;6.63;5.87;;;;;;;8.67;65.49;98535.00;5052868;28;20035;-63
2021/04/22 03:11:28;;;;;;;8.97;6.20;;;;;;;8.56;66.00;98537.69;5052700;28;20028;-62
2021/04/22 03:13:53;;;;;;;9.60;6.90;;;;;;;8.54;65.60;98533.47;5051978;28;20029;-63
2021/04/22 03:16:19;;;;;;;10.90;7.73;;;;;;;8.45;66.41;98548.88;5051858;28;20044;-65
2021/04/22 03:18:44;;;;;;;8.27;6.77;;;;;;;8.30;66.93;98541.41;5053480;28;20029;-65
2021/04/22 03:21:10;;;;;;;8.20;6.80;;;;;;;8.21;67.44;98550.00;5052351;28;20040;-64
2021/04/22 03:23:35;;;;;;;8.10;6.10;;;;;;;8.09;68.19;98550.97;5052836;28;20103;-66
2021/04/22 03:26:01;;;;;;;8.23;6.63;;;;;;;7.99;68.49;98541.72;5049742;28;20305;-66
2021/04/22 03:28:26;;;;;;;8.37;6.17;;;;;;;7.97;68.57;98548.56;5049863;28;20032;-67
2021/04/22 03:30:52;;;;;;;8.73;6.80;;;;;;;7.88;69.27;98545.25;5049475;28;20017;-67
2021/04/22 03:33:18;;;;;;;10.30;6.33;;;;;;;7.91;69.21;98550.31;5051356;28;20021;-66
2021/04/22 03:35:43;;;;;;;8.93;5.90;;;;;;;7.93;69.42;98549.44;5056460;28;20029;-68
2021/04/22 03:38:09;;;;;;;10.20;7.47;;;;;;;7.93;68.89;98552.00;5054370;28;20032;-68
2021/04/22 03:40:34;;;;;;;9.33;6.63;;;;;;;7.98;68.66;98549.38;5056522;28;20025;-67
2021/04/22 03:43:00;;;;;;;9.63;6.80;;;;;;;8.06;68.47;98553.53;5054797;28;20378;-67
2021/04/22 03:45:26;;;;;;;11.60;7.90;;;;;;;8.17;67.64;98551.75;5054050;28;20029;-67
2021/04/22 03:47:51;;;;;;;8.87;6.67;;;;;;;8.13;67.68;98555.19;5056263;28;20289;-68
2021/04/22 03:50:18;;;;;;;9.00;6.30;;;;;;;8.10;68.41;98555.22;5055480;28;20074;-67
2021/04/22 03:52:45;;;;;;;9.73;7.07;;;;;;;8.01;68.96;98557.88;5056829;28;20078;-68
2021/04/22 03:55:11;;;;;;;11.83;7.03;;;;;;;8.00;68.52;98550.22;5054793;28;20032;-68
2021/04/22 03:57:37;;;;;;;7.47;6.57;;;;;;;7.87;69.48;98544.38;5053730;28;20078;-68
2021/04/22 04:00:06;;;;;;;8.63;6.67;;;;;;;7.88;69.50;98561.41;5053873;28;20029;-67
2021/04/22 04:02:31;;;;;;;8.47;6.90;;;;;;;7.77;69.96;98556.38;5055970;28;20029;-68
2021/04/22 04:04:57;;;;;;;12.80;7.47;;;;;;;7.66;70.41;98549.69;5054350;28;20286;-65
2021/04/22 04:07:22;;;;;;;6.80;5.90;;;;;;;7.64;70.32;98562.44;5055772;28;20057;-67
2021/04/22 04:09:47;;;;;;;11.03;7.33;;;;;;;7.61;70.38;98562.47;5054535;28;20033;-66
2021/04/22 04:12:13;;;;;;;9.33;6.87;;;;;;;7.59;71.07;98563.38;5056209;28;20507;-65
2021/04/22 04:14:39;;;;;;;8.43;5.57;;;;;;;7.58;70.94;98559.97;5053546;28;20068;-66
2021/04/22 04:17:05;;;;;;;8.43;7.00;;;;;;;7.58;71.38;98562.53;5053792;28;20374;-67
2021/04/22 04:19:31;;;;;;;8.40;6.87;;;;;;;7.63;71.46;98565.03;5054732;28;20033;-67
2021/04/22 04:21:56;;;;;;;11.60;6.60;;;;;;;7.64;70.86;98571.81;5054020;28;20040;-66
2021/04/22 04:24:22;;;;;;;11.73;8.77;;;;;;;7.68;70.84;98565.84;5054240;28;20056;-65
2021/04/22 04:26:47;;;;;;;10.20;7.23;;;;;;;7.71;70.89;98563.25;5028054;28;20033;-66
2021/04/22 04:29:13;;;;;;;10.20;7.13;;;;;;;7.80;70.31;98571.69;5054317;28;20029;-67
2021/04/22 04:31:38;;;;;;;10.70;6.73;;;;;;;7.87;69.95;98561.41;5054927;28;20298;-67
2021/04/22 04:34:04;;;;;;;7.90;6.47;;;;;;;7.94;70.07;98570.69;5054290;28;20052;-67
2021/04/22 04:36:30;;;;;;;8.17;6.33;;;;;;;7.99;69.89;98567.25;5050583;28;20084;-68
2021/04/22 04:38:55;;;;;;;8.40;6.13;;;;;;;8.05;69.56;98574.00;5054141;28;20025;-68
2021/04/22 04:41:21;;;;;;;8.37;5.83;;;;;;;8.13;69.21;98572.22;5054671;28;20036;-66
2021/04/22 04:43:46;;;;;;;9.67;6.30;;;;;;;8.20;69.44;98573.84;5054465;28;20082;-68
2021/04/22 04:46:17;;;;;;;9.10;6.70;;;;;;;8.31;68.79;98583.97;5053231;28;20029;-66
2021/04/22 04:48:44;;;;;;;10.87;7.10;;;;;;;8.44;68.71;98580.44;5055511;28;20032;-66
2021/04/22 04:51:10;;;;;;;8.70;6.60;;;;;;;8.59;67.35;98581.09;5053809;28;20446;-67
2021/04/22 04:53:35;;;;;;;13.33;7.53;;;;;;;8.73;66.27;98578.38;5054760;28;20039;-66
2021/04/22 04:56:00;;;;;;;10.93;7.93;;;;;;;8.89;65.85;98582.41;5052792;28;20025;-66
2021/04/22 04:58:26;;;;;;;10.47;7.53;;;;;;;9.00;65.29;98587.38;5054547;28;20037;-66
2021/04/22 05:00:51;;;;;;;8.23;6.60;;;;;;;9.10;64.06;98586.41;5053794;28;20382;-66
2021/04/22 05:03:16;;;;;;;9.00;6.17;;;;;;;9.28;63.29;98586.16;5054698;28;20044;-66
2021/04/22 05:05:42;;;;;;;7.47;5.80;;;;;;;9.45;63.64;98583.34;5051962;28;20281;-66
2021/04/22 05:08:07;;;;;;;6.20;5.57;;;;;;;9.56;63.03;98581.44;5054010;28;20057;-66
2021/04/22 05:10:33;;;;;;;8.70;7.17;;;;;;;9.66;62.66;98583.00;5027283;28;20100;-66
2021/04/22 05:12:58;;;;;;;8.77;6.43;;;;;;;9.71;62.75;98573.53;5054032;28;20294;-66
2021/04/22 05:15:24;;;;;;;10.33;6.00;;;;;;;9.88;62.44;98591.16;5054249;28;20029;-66
2021/04/22 05:17:49;;;;;;;9.67;6.67;;;;;;;10.03;61.45;98578.94;5055143;28;20397;-66
2021/04/22 05:20:15;;;;;;;9.23;6.77;;;;;;;10.20;61.97;98585.50;5054445;28;20104;-66
2021/04/22 05:22:41;;;;;;;7.90;5.90;;;;;;;10.33;61.90;98586.97;5054745;28;20064;-66
2021/04/22 05:25:07;;;;;;;8.57;5.83;;;;;;;10.54;61.54;98594.25;5055203;28;20075;-66
2021/04/22 05:27:34;;;;;;;8.73;6.10;;;;;;;10.59;59.58;98589.88;5053855;28;20033;-66
2021/04/22 05:30:00;;;;;;;9.07;6.20;;;;;;;10.70;58.95;98590.50;5052694;28;20104;-66
2021/04/22 05:32:25;;;;;;;6.90;5.30;;;;;;;10.75;58.32;98595.53;5053482;28;20358;-66
2021/04/22 05:34:51;;;;;;;8.73;6.73;;;;;;;10.80;57.97;98589.44;5052068;28;20389;-66
2021/04/22 05:37:18;;;;;;;7.43;5.60;;;;;;;10.74;57.60;98578.47;5053818;28;20028;-66
2021/04/22 05:39:43;;;;;;;7.57;5.63;;;;;;;10.84;58.11;98596.19;5054263;28;20025;-66
2021/04/22 05:42:09;;;;;;;9.60;5.97;;;;;;;10.90;57.46;98597.81;5052782;28;20433;-66
2021/04/22 05:44:34;;;;;;;10.13;6.53;;;;;;;10.94;58.09;98607.97;5054366;28;20029;-66
2021/04/22 05:47:00;;;;;;;8.93;6.07;;;;;;;10.99;57.50;98603.56;5035261;28;20455;-67
2021/04/22 05:49:26;;;;;;;7.33;5.30;;;;;;;10.98;57.69;98612.16;5055063;28;20505;-67
2021/04/22 05:51:52;;;;;;;10.97;6.23;;;;;;;10.98;56.87;98612.16;5053150;28;20274;-67
2021/04/22 05:54:17;;;;;;;8.20;5.67;;;;;;;11.06;57.01;98606.88;5054903;28;20032;-67
2021/04/22 05:56:43;;;;;;;6.88;5.38;;;;;;;11.35;56.42;98603.66;5052813;28;20028;-68
2021/04/22 05:59:08;;;;;;;7.93;6.13;;;;;;;11.35;55.89;98609.63;5050791;28;20028;-63
2021/04/22 06:01:34;;;;;;;8.18;6.68;;;;;;;11.41;55.32;98606.09;5051581;28;20029;-62
2021/04/22 06:03:59;;;;;;;7.18;5.45;;;;;;;11.23;56.40;98604.78;5053071;28;20025;-62
2021/04/22 06:06:25;;;;;;;5.95;5.13;;;;;;;11.26;56.35;98606.41;5052144;28;20029;-62
2021/04/22 06:08:50;;;;;;;6.72;5.97;;;;;;;11.30;56.20;98615.75;5051304;28;20048;-63
2021/04/22 06:11:16;;;;;;;10.15;6.82;;;;;;;11.29;56.40;98612.31;5053242;28;20033;-63
2021/04/22 06:13:41;;;;;;;7.32;5.72;;;;;;;11.39;56.51;98618.94;5052755;28;20486;-63
2021/04/22 06:16:08;;;;;;;6.90;6.07;;;;;;;11.60;56.09;98609.91;5052030;28;20441;-63
2021/04/22 06:18:34;;;;;;;7.32;6.32;;;;;;;11.79;55.83;98613.78;5038557;28;20021;-61
2021/04/22 06:20:59;;;;;;;7.90;5.80;;;;;;;11.97;55.23;98612.47;5051677;28;20021;-62
2021/04/22 06:23:25;;;;;;;7.72;5.80;;;;;;;12.24;54.73;98622.06;5035108;28;20091;-62
2021/04/22 06:25:51;;;;;;;5.63;4.93;;;;;;;12.46;53.79;98621.50;5052660;28;20066;-63
2021/04/22 06:28:17;;;;;;;6.70;5.68;;;;;;;12.58;53.09;98616.88;5051073;28;20336;-63
2021/04/22 06:30:42;;;;;;;5.97;5.30;;;;;;;13.00;51.25;98622.53;5051399;28;20025;-63
2021/04/22 06:33:08;;;;;;;6.85;5.38;;;;;;;13.41;50.78;98626.47;5051140;28;20041;-63
2021/04/22 06:35:33;;;;;;;7.10;5.95;;;;;;;13.82;50.61;98619.22;5052992;28;20039;-64
2021/04/22 06:37:59;;;;;;;6.22;4.47;;;;;;;13.95;48.96;98621.34;5051237;28;20039;-63
2021/04/22 06:40:24;;;;;;;5.68;5.00;;;;;;;14.13;49.64;98620.72;5053881;28;20464;-64
2021/04/22 06:42:51;;;;;;;6.80;4.85;;;;;;;14.04;50.23;98615.03;5052073;28;20028;-64
2021/04/22 06:45:17;;;;;;;5.30;4.80;;;;;;;14.14;50.69;98626.72;5053178;28;20025;-64
2021/04/22 06:47:43;;;;;;;7.13;4.93;;;;;;;13.85;50.66;98627.69;5051796;28;20047;-64
2021/04/22 06:50:11;;;;;;;5.68;5.07;;;;;;;14.05;49.96;98620.13;5052164;28;20314;-64
2021/04/22 06:52:38;;;;;;;11.20;5.97;;;;;;;13.70;48.69;98625.59;5050916;28;20108;-64
2021/04/22 06:55:11;;;;;;;5.05;4.35;;;;;;;13.81;49.38;98630.41;5053278;28;20298;-64
2021/04/22 06:57:36;;;;;;;5.47;4.35;;;;;;;13.61;49.47;98623.31;5051363;28;20099;-64
2021/04/22 07:00:07;;;;;;;8.93;5.40;;;;;;;13.58;49.61;98633.69;5053844;28;20361;-64
2021/04/22 07:02:32;;;;;;;5.47;4.97;;;;;;;13.22;49.21;98639.06;5051955;28;20053;-64
2021/04/22 07:04:57;;;;;;;5.68;4.75;;;;;;;13.18;50.58;98634.06;5050837;28;20466;-62
2021/04/22 07:07:23;;;;;;;5.72;4.78;;;;;;;13.12;51.03;98627.34;5052727;28;20106;-64
2021/04/22 07:09:48;;;;;;;6.88;5.32;;;;;;;13.04;49.85;98636.16;5051749;28;20357;-62
2021/04/22 07:12:13;;;;;;;5.65;5.05;;;;;;;13.02;50.46;98640.50;5053201;28;20029;-63
2021/04/22 07:14:39;;;;;;;6.82;5.43;;;;;;;12.94;50.54;98642.47;5053363;28;20033;-63
2021/04/22 07:17:05;;;;;;;6.47;4.57;;;;;;;12.90;51.24;98649.41;5052367;28;20057;-64
2021/04/22 07:19:31;;;;;;;7.45;5.32;;;;;;;12.88;51.42;98645.19;5053272;28;20086;-64
2021/04/22 07:21:56;;;;;;;4.95;4.10;;;;;;;12.94;51.16;98643.31;5036042;28;20024;-63
2021/04/22 07:24:21;;;;;;;5.13;4.38;;;;;;;13.14;51.15;98641.03;5053746;28;20040;-64
2021/04/22 07:26:47;;;;;;;4.95;4.45;;;;;;;13.44;49.16;98638.44;5051645;28;20382;-64
2021/04/22 07:29:12;;;;;;;5.15;4.22;;;;;;;13.66;47.88;98647.19;5052905;28;20039;-63
2021/04/22 07:31:38;;;;;;;4.18;3.72;;;;;;;13.94;48.31;98644.56;5050835;28;20252;-64
2021/04/22 07:34:03;;;;;;;12.63;6.63;;;;;;;14.02;48.14;98637.44;5050470;28;20048;-64
2021/04/22 07:36:29;;;;;;;5.85;3.80;;;;;;;14.21;47.44;98635.09;5050432;28;20140;-64
2021/04/22 07:38:54;;;;;;;4.35;3.85;;;;;;;14.36;47.03;98638.03;5053099;28;20054;-64
2021/04/22 07:41:20;;;;;;;5.63;4.75;;;;;;;14.43;46.49;98634.34;5050361;28;20033;-65
2021/04/22 07:43:45;;;;;;;5.65;4.90;;;;;;;14.48;46.96;98647.94;5050405;28;20290;-64
2021/04/22 07:46:11;;;;;;;5.82;4.88;;;;;;;14.53;46.72;98647.78;5034761;28;20041;-63
2021/04/22 07:48:36;;;;;;;6.85;5.07;;;;;;;14.72;46.89;98650.56;5050020;28;20039;-63
2021/04/22 07:51:02;;;;;;;7.60;6.05;;;;;;;14.78;46.34;98652.91;5048825;28;20105;-65
2021/04/22 07:53:28;;;;;;;5.80;4.22;;;;;;;14.78;46.46;98656.34;5048770;28;20065;-63
2021/04/22 07:55:53;;;;;;;5.88;4.90;;;;;;;15.03;45.57;98636.47;5031443;28;20367;-64
2021/04/22 07:58:19;;;;;;;5.72;4.88;;;;;;;15.23;45.56;98637.50;5050879;28;20390;-65
2021/04/22 08:00:48;;;;;;;5.72;4.50;;;;;;;15.50;44.92;98629.56;5051874;28;20021;-65
2021/04/22 08:03:16;;;;;;;4.72;4.20;;;;;;;15.72;44.06;98642.47;5052474;28;20476;-64
2021/04/22 08:05:42;;;;;;;8.10;5.15;;;;;;;15.77;43.03;98645.72;5036659;28;20029;-64
2021/04/22 08:08:10;;;;;;;7.93;5.85;;;;;;;15.83;43.47;98637.72;5050711;28;20385;-64
2021/04/22 08:10:40;;;;;;;6.28;5.47;;;;;;;15.86;43.76;98635.03;5051229;28;20115;-63
2021/04/22 08:13:10;;;;;;;17.95;6.90;;;;;;;15.57;43.13;98622.41;5049724;28;20324;-64
2021/04/22 08:15:37;;;;;;;7.47;5.60;;;;;;;15.54;44.52;98640.59;5051033;28;20310;-64
2021/04/22 08:18:04;;;;;;;14.88;5.75;;;;;;;15.48;44.02;98649.44;5049668;28;20029;-63
2021/04/22 08:20:30;;;;;;;6.90;4.90;;;;;;;15.40;44.45;98637.69;5049071;28;20048;-64
2021/04/22 08:22:57;;;;;;;7.88;5.28;;;;;;;15.51;44.82;98639.00;5054027;28;20029;-64
2021/04/22 08:25:28;;;;;;;7.85;5.50;;;;;;;15.51;45.31;98641.59;5054032;28;20381;-64
2021/04/22 08:27:55;;;;;;;8.80;5.78;;;;;;;15.47;44.27;98652.91;5051475;28;20052;-63
2021/04/22 08:30:25;;;;;;;6.97;6.00;;;;;;;15.50;44.85;98651.97;5040497;28;20028;-64
2021/04/22 08:32:50;;;;;;;5.53;4.57;;;;;;;15.46;44.32;98648.63;5056377;28;20029;-64
2021/04/22 08:35:16;;;;;;;5.95;4.53;;;;;;;15.51;44.26;98649.34;5040735;28;20100;-64
2021/04/22 08:37:42;;;;;;;7.80;5.45;;;;;;;15.47;44.69;98667.56;5038306;28;20446;-64
2021/04/22 08:40:10;;;;;;;5.72;5.15;;;;;;;15.47;44.50;98652.91;5051122;28;20120;-64
2021/04/22 08:42:37;;;;;;;7.05;4.57;;;;;;;15.66;44.82;98662.56;5053987;28;20044;-65
2021/04/22 08:45:05;;;;;;;8.95;5.47;;;;;;;15.87;43.76;98653.97;5050237;28;20064;-64
2021/04/22 08:47:32;;;;;;;8.05;5.30;;;;;;;16.08;43.06;98660.03;5053041;28;20033;-65
2021/04/22 08:49:57;;;;;;;5.88;5.30;;;;;;;15.80;43.28;98655.94;5052614;28;20020;-64
2021/04/22 08:52:23;;;;;;;8.50;6.50;;;;;;;15.63;43.11;98660.09;5053428;28;20029;-64
2021/04/22 08:54:52;;;;;;;8.02;5.63;;;;;;;15.76;44.15;98661.28;5042678;28;20047;-64
2021/04/22 08:57:19;;;;;;;7.47;6.60;;;;;;;15.90;44.02;98644.34;5055047;28;20080;-65
2021/04/22 08:59:45;;;;;;;6.88;5.32;;;;;;;15.86;43.43;98663.47;5053235;28;20051;-64
2021/04/22 09:02:11;;;;;;;7.22;6.53;;;;;;;16.16;43.36;98657.97;5039034;28;20371;-64
2021/04/22 09:04:36;;;;;;;8.63;6.50;;;;;;;16.40;41.74;98670.72;5036656;28;20048;-64
2021/04/22 09:07:03;;;;;;;13.57;7.25;;;;;;;16.40;42.14;98664.69;5052573;28;20176;-64
2021/04/22 09:09:29;;;;;;;8.13;6.32;;;;;;;16.49;42.23;98659.13;5056093;28;20041;-64
2021/04/22 09:11:54;;;;;;;7.22;5.72;;;;;;;16.41;42.79;98667.22;5053643;28;20415;-64
2021/04/22 09:14:22;;;;;;;7.00;5.82;;;;;;;16.08;43.17;98671.22;5053728;28;20033;-64
2021/04/22 09:16:48;;;;;;;8.73;7.47;;;;;;;15.95;43.49;98670.03;5054472;28;20053;-64
2021/04/22 09:19:21;;;;;;;10.88;7.07;;;;;;;16.19;43.02;98674.19;5037862;28;20106;-65
2021/04/22 09:21:54;;;;;;;8.13;6.72;;;;;;;16.27;43.55;98674.72;5055245;28;20104;-63
2021/04/22 09:24:25;;;;;;;6.68;5.68;;;;;;;16.55;42.40;98671.00;5053674;28;20083;-64
2021/04/22 09:26:52;;;;;;;6.72;4.68;;;;;;;16.71;43.05;98672.91;5055411;28;20029;-64
2021/04/22 09:29:50;;;;;;;13.48;5.65;;;;;;;16.85;42.78;98682.63;5054011;28;20029;-64
2021/04/22 09:32:22;;;;;;;7.28;6.25;;;;;;;15.90;44.01;98680.53;5053104;28;20090;-63
2021/04/22 09:35:07;;;;;;;10.68;7.70;;;;;;;15.33;45.66;98699.06;5054103;28;20334;-64
2021/04/22 09:37:39;;;;;;;8.07;6.95;;;;;;;15.40;49.56;98705.69;5053227;28;20031;-64
2021/04/22 09:40:23;;;;;;;9.35;5.97;;;;;;;15.04;49.08;98704.47;5053183;28;20029;-64
2021/04/22 09:42:51;;;;;;;12.00;8.18;;;;;;;14.79;47.83;98711.38;5035212;28;20033;-64
2021/04/22 09:45:19;;;;;;;9.30;6.60;;;;;;;14.64;47.26;98707.56;5051878;28;20039;-63
2021/04/22 09:47:44;;;;;;;8.32;7.22;;;;;;;14.52;48.19;98701.09;5038471;28;20029;-62
2021/04/22 09:50:15;;;;;;;8.75;5.95;;;;;;;14.40;49.36;98701.50;5053127;28;20037;-63
2021/04/22 09:52:44;;;;;;;8.10;6.70;;;;;;;14.38;49.68;98702.47;5054782;28;20365;-63
2021/04/22 09:55:16;;;;;;;8.70;7.10;;;;;;;14.62;49.33;98709.38;5053088;28;20125;-63
2021/04/22 09:57:43;;;;;;;7.65;6.18;;;;;;;14.85;49.19;98701.69;5053886;28;20112;-63
2021/04/22 10:00:14;;;;;;;8.45;6.15;;;;;;;14.55;49.99;98719.06;5051773;28;20028;-62
2021/04/22 10:02:43;;;;;;;7.25;5.68;;;;;;;14.75;49.47;98715.81;5053055;28;20058;-62
2021/04/22 10:05:16;;;;;;;8.60;6.30;;;;;;;14.75;49.58;98722.72;5049837;28;20029;-64
2021/04/22 10:07:42;;;;;;;8.07;6.57;;;;;;;14.95;49.94;98725.44;5053492;28;20059;-64
2021/04/22 10:10:26;;;;;;;7.28;6.45;;;;;;;15.00;48.89;98723.53;5054777;28;20562;-63
2021/04/22 10:12:58;;;;;;;8.20;6.60;;;;;;;15.26;49.18;98723.47;5053617;28;20028;-64
2021/04/22 10:15:24;;;;;;;9.65;6.20;;;;;;;15.07;48.21;98720.69;5036896;28;20036;-63
2021/04/22 10:17:59;;;;;;;8.40;6.43;;;;;;;15.24;48.43;98732.13;5055126;28;20032;-64
2021/04/22 10:20:26;;;;;;;6.85;6.07;;;;;;;15.25;48.72;98736.41;5052471;28;20024;-64
2021/04/22 10:22:53;;;;;;;8.00;7.20;;;;;;;15.15;48.54;98722.97;5050417;28;20044;-63
2021/04/22 10:25:32;;;;;;;10.85;8.07;;;;;;;15.38;47.87;98723.00;5055232;28;20405;-64
2021/04/22 10:28:19;;;;;;;11.20;8.90;;;;;;;15.27;47.75;98717.41;5052739;28;20128;-64
2021/04/22 10:30:48;;;;;;;11.35;8.48;;;;;;;14.91;47.76;98732.44;5056237;28;20321;-64
2021/04/22 10:33:14;;;;;;;12.35;8.32;;;;;;;14.71;48.70;98736.63;5053106;28;20040;-64
2021/04/22 10:35:43;;;;;;;11.32;8.45;;;;;;;14.49;48.31;98732.16;5055026;28;20048;-63
2021/04/22 10:38:09;;;;;;;16.58;11.40;;;;;;;14.11;51.08;98754.00;5054994;28;20039;-64
2021/04/22 10:40:44;;;;;;;9.60;7.93;;;;;;;13.88;54.74;98778.78;5051965;28;20025;-64
2021/04/22 10:43:19;;;;;;;11.73;8.07;;;;;;;13.18;57.96;98788.53;5053574;28;20037;-64
2021/04/22 10:45:45;;;;;;;8.32;7.28;;;;;;;13.15;58.55;98783.47;5051724;28;20029;-63
2021/04/22 10:48:10;;;;;;;8.73;7.07;;;;;;;12.79;58.27;98780.06;5055919;28;20043;-64
2021/04/22 10:50:40;;;;;;;8.82;6.03;;;;;;;12.38;58.48;98785.41;5054683;28;20112;-64
2021/04/22 10:53:09;;;;;;;8.18;6.70;;;;;;;12.50;59.22;98783.38;5052496;28;20359;-63
2021/04/22 10:55:36;;;;;;;9.77;7.25;;;;;;;12.58;58.70;98794.31;5054749;28;20270;-63
2021/04/22 10:58:14;;;;;;;9.65;8.27;;;;;;;12.40;59.80;98810.19;5056328;28;20029;-63
2021/04/22 11:00:54;;;;;;;11.90;9.15;;;;;;;12.22;62.16;98821.72;5058297;28;20119;-63
2021/04/22 11:03:24;;;;;;;12.63;9.43;;;;;;;11.91;62.73;98823.28;5054075;28;20394;-64
2021/04/22 11:05:55;;;;;;;14.73;9.85;;;;;;;12.20;63.11;98827.78;5052400;28;20029;-64
2021/04/22 11:08:40;;;;;;;14.93;9.70;;;;;;;12.06;64.28;98834.94;5032062;28;20418;-63
2021/04/22 11:11:26;;;;;;;;;;;;;;;11.88;64.67;98831.91;5032402;28;20037;-64
2021/04/22 11:14:12;;;;;;;16.00;10.35;;;;;;;11.59;64.69;98829.03;5032276;28;19920;-64
2021/04/22 11:16:40;;;;;;;14.40;10.75;;;;;;;11.46;64.30;98838.72;5031608;28;20078;-64
2021/04/22 11:19:21;;;;;;;14.55;11.20;;;;;;;11.39;63.89;98841.44;5029508;28;20076;-64
2021/04/22 11:21:56;;;;;;;13.15;9.05;;;;;;;11.68;63.74;98849.41;5033324;28;20414;-64
2021/04/22 11:24:44;;;;;;;13.53;10.10;;;;;;;11.96;62.82;98833.47;5032973;28;20148;-64
2021/04/22 11:27:15;;;;;;;13.38;9.35;;;;;;;12.00;60.88;98829.97;5032386;28;20287;-64
2021/04/22 11:29:45;;;;;;;14.15;10.10;;;;;;;12.26;60.02;98837.94;5032948;28;20029;-63
2021/04/22 11:32:23;;;;;;;10.73;9.07;;;;;;;12.44;60.28;98827.22;5031659;28;20112;-63
2021/04/22 11:34:50;;;;;;;15.45;11.93;;;;;;;12.95;57.65;98824.25;5028845;28;20121;-64